createdAt,value
2019-04-28T00:00:36.010Z,8.27
2019-04-28T00:01:36.035Z,8.32
2019-04-28T00:02:35.989Z,8.32
2019-04-28T00:03:35.984Z,8.34
2019-04-28T00:04:35.973Z,8.32
2019-04-28T00:05:35.977Z,8.37
2019-04-28T00:06:35.970Z,8.32
2019-04-28T00:07:35.948Z,8.29
2019-04-28T00:08:35.926Z,8.39
2019-04-28T00:09:35.921Z,8.34
2019-04-28T00:10:35.899Z,8.31
2019-04-28T00:11:35.896Z,8.31
2019-04-28T00:12:35.908Z,8.27
2019-04-28T00:13:35.884Z,8.29
2019-04-28T00:14:35.859Z,8.29
2019-04-28T00:15:35.847Z,8.21
2019-04-28T00:16:35.839Z,8.32
2019-04-28T00:17:35.839Z,8.22
2019-04-28T00:18:35.843Z,8.25
2019-04-28T00:19:35.814Z,8.28
2019-04-28T00:20:35.859Z,8.32
2019-04-28T00:21:35.785Z,8.29
2019-04-28T00:22:35.778Z,8.31
2019-04-28T00:23:35.780Z,8.34
2019-04-28T00:24:35.796Z,8.36
2019-04-28T00:25:35.752Z,8.31
2019-04-28T00:26:35.739Z,8.32
2019-04-28T00:27:35.728Z,8.28
2019-04-28T00:28:35.713Z,8.24
2019-04-28T00:29:40.775Z,8.32
2019-04-28T00:30:36.715Z,8.34
2019-04-28T00:31:35.688Z,8.28
2019-04-28T00:32:35.673Z,8.39
2019-04-28T00:33:35.657Z,8.32
2019-04-28T00:34:35.644Z,8.31
2019-04-28T00:35:35.641Z,8.32
2019-04-28T00:36:35.667Z,8.34
2019-04-28T00:37:35.622Z,8.43
2019-04-28T00:38:35.607Z,8.32
2019-04-28T00:39:35.592Z,8.39
2019-04-28T00:40:35.582Z,8.29
2019-04-28T00:41:35.590Z,8.40
2019-04-28T00:42:35.588Z,8.31
2019-04-28T00:43:35.552Z,8.46
2019-04-28T00:44:35.555Z,8.39
2019-04-28T00:45:35.531Z,8.42
2019-04-28T00:46:35.537Z,8.40
2019-04-28T00:47:35.516Z,8.40
2019-04-28T00:48:35.525Z,8.31
2019-04-28T00:49:35.489Z,8.34
2019-04-28T00:50:35.475Z,8.32
2019-04-28T00:51:35.470Z,8.32
2019-04-28T00:52:35.460Z,8.28
2019-04-28T00:53:35.507Z,8.37
2019-04-28T00:54:35.464Z,8.40
2019-04-28T00:55:35.440Z,8.37
2019-04-28T00:56:35.439Z,8.42
2019-04-28T00:57:35.406Z,8.34
2019-04-28T00:58:35.390Z,8.40
2019-04-28T00:59:35.391Z,8.42
2019-04-28T01:00:35.406Z,8.42
2019-04-28T01:01:35.357Z,8.40
2019-04-28T01:02:35.352Z,8.37
2019-04-28T01:03:35.338Z,8.34
2019-04-28T01:04:35.331Z,8.42
2019-04-28T01:05:35.330Z,8.36
2019-04-28T01:06:35.339Z,8.34
2019-04-28T01:07:35.293Z,8.43
2019-04-28T01:08:35.284Z,8.39
2019-04-28T01:09:35.270Z,8.45
2019-04-28T01:10:35.284Z,8.40
2019-04-28T01:11:35.269Z,8.42
2019-04-28T01:12:35.273Z,8.45
2019-04-28T01:13:35.233Z,8.47
2019-04-28T01:14:35.226Z,8.42
2019-04-28T01:15:35.213Z,8.40
2019-04-28T01:16:35.203Z,8.49
2019-04-28T01:17:35.203Z,8.52
2019-04-28T01:18:35.221Z,8.55
2019-04-28T01:19:35.174Z,8.47
2019-04-28T01:20:35.153Z,8.54
2019-04-28T01:21:35.146Z,8.54
2019-04-28T01:22:35.138Z,8.54
2019-04-28T01:23:35.123Z,8.45
2019-04-28T01:24:35.145Z,8.55
2019-04-28T01:25:35.116Z,8.47
2019-04-28T01:26:35.096Z,8.47
2019-04-28T01:27:35.086Z,8.47
2019-04-28T01:28:35.078Z,8.57
2019-04-28T01:29:35.069Z,8.46
2019-04-28T01:30:35.073Z,8.46
2019-04-28T01:31:35.045Z,8.46
2019-04-28T01:32:35.038Z,8.45
2019-04-28T01:33:35.021Z,8.50
2019-04-28T01:34:35.006Z,8.42
2019-04-28T01:35:35.011Z,8.46
2019-04-28T01:36:35.009Z,8.52
2019-04-28T01:37:34.988Z,8.50
2019-04-28T01:38:34.967Z,8.47
2019-04-28T01:39:34.962Z,8.49
2019-04-28T01:40:34.961Z,8.45
2019-04-28T01:41:34.964Z,8.43
2019-04-28T01:42:34.964Z,8.45
2019-04-28T01:43:34.909Z,8.32
2019-04-28T01:44:34.899Z,8.40
2019-04-28T01:45:34.898Z,8.39
2019-04-28T01:46:34.898Z,8.47
2019-04-28T01:47:34.866Z,8.47
2019-04-28T01:48:34.883Z,8.45
2019-04-28T01:49:34.848Z,8.39
2019-04-28T01:50:34.848Z,8.47
2019-04-28T01:51:34.856Z,8.39
2019-04-28T01:52:34.839Z,8.39
2019-04-28T01:53:34.855Z,8.46
2019-04-28T01:54:34.800Z,8.37
2019-04-28T01:55:34.785Z,8.31
2019-04-28T01:56:34.779Z,8.32
2019-04-28T01:57:34.765Z,8.29
2019-04-28T01:58:34.772Z,8.36
2019-04-28T01:59:34.769Z,8.28
2019-04-28T02:00:34.738Z,8.39
2019-04-28T02:01:34.729Z,8.32
2019-04-28T02:02:34.706Z,8.31
2019-04-28T02:03:34.726Z,8.29
2019-04-28T02:04:34.739Z,8.40
2019-04-28T02:05:34.705Z,8.27
2019-04-28T02:06:34.677Z,8.29
2019-04-28T02:07:34.663Z,8.36
2019-04-28T02:08:34.655Z,8.29
2019-04-28T02:09:34.638Z,8.32
2019-04-28T02:10:34.626Z,8.28
2019-04-28T02:11:34.636Z,8.31
2019-04-28T02:12:34.608Z,8.25
2019-04-28T02:13:34.593Z,8.25
2019-04-28T02:14:34.579Z,8.24
2019-04-28T02:15:34.573Z,8.32
2019-04-28T02:16:34.569Z,8.29
2019-04-28T02:17:34.572Z,8.29
2019-04-28T02:18:34.544Z,8.29
2019-04-28T02:19:34.535Z,8.28
2019-04-28T02:20:34.523Z,8.29
2019-04-28T02:21:34.509Z,8.25
2019-04-28T02:22:34.524Z,8.31
2019-04-28T02:23:34.485Z,8.32
2019-04-28T02:24:34.482Z,8.34
2019-04-28T02:25:34.476Z,8.25
2019-04-28T02:26:34.467Z,8.28
2019-04-28T02:27:34.447Z,8.31
2019-04-28T02:28:34.455Z,8.32
2019-04-28T02:29:34.435Z,8.27
2019-04-28T02:30:45.435Z,8.34
2019-04-28T02:31:35.397Z,8.22
2019-04-28T02:32:34.448Z,8.27
2019-04-28T02:33:34.394Z,8.31
2019-04-28T02:34:34.393Z,8.17
2019-04-28T02:35:34.632Z,8.22
2019-04-28T02:36:34.426Z,8.31
2019-04-28T02:37:34.342Z,8.21
2019-04-28T02:38:34.558Z,8.20
2019-04-28T02:39:34.319Z,8.24
2019-04-28T02:40:34.334Z,8.14
2019-04-28T02:41:34.291Z,8.18
2019-04-28T02:42:34.290Z,8.28
2019-04-28T02:43:34.281Z,8.27
2019-04-28T02:44:35.305Z,8.24
2019-04-28T02:45:34.258Z,8.20
2019-04-28T02:46:34.272Z,8.22
2019-04-28T02:47:34.409Z,8.14
2019-04-28T02:48:34.228Z,8.17
2019-04-28T02:49:34.218Z,8.18
2019-04-28T02:50:34.195Z,8.17
2019-04-28T02:51:34.189Z,8.28
2019-04-28T02:52:34.203Z,8.24
2019-04-28T02:53:34.181Z,8.10
2019-04-28T02:54:34.165Z,8.17
2019-04-28T02:55:34.151Z,8.18
2019-04-28T02:56:34.143Z,8.18
2019-04-28T02:57:34.131Z,8.13
2019-04-28T02:58:34.229Z,8.21
2019-04-28T02:59:34.102Z,8.07
2019-04-28T03:00:34.099Z,8.13
2019-04-28T03:01:34.081Z,8.17
2019-04-28T03:02:34.085Z,8.14
2019-04-28T03:03:34.086Z,8.18
2019-04-28T03:04:34.067Z,8.12
2019-04-28T03:05:34.039Z,8.04
2019-04-28T03:06:34.036Z,8.17
2019-04-28T03:07:34.025Z,8.14
2019-04-28T03:08:34.016Z,8.17
2019-04-28T03:09:34.032Z,8.18
2019-04-28T03:10:34.004Z,8.06
2019-04-28T03:11:33.984Z,8.17
2019-04-28T03:12:33.994Z,8.18
2019-04-28T03:13:33.954Z,8.13
2019-04-28T03:14:33.955Z,8.09
2019-04-28T03:15:33.962Z,8.14
2019-04-28T03:16:33.931Z,8.10
2019-04-28T03:17:33.918Z,8.14
2019-04-28T03:18:33.909Z,8.12
2019-04-28T03:19:34.248Z,8.03
2019-04-28T03:20:33.887Z,8.20
2019-04-28T03:21:33.903Z,8.09
2019-04-28T03:22:33.917Z,8.07
2019-04-28T03:23:33.855Z,8.06
2019-04-28T03:24:33.842Z,8.04
2019-04-28T03:25:33.842Z,8.10
2019-04-28T03:26:33.819Z,8.14
2019-04-28T03:27:33.835Z,8.09
2019-04-28T03:28:33.963Z,8.09
2019-04-28T03:29:33.795Z,8.09
2019-04-28T03:30:34.233Z,8.13
2019-04-28T03:32:01.287Z,7.99
2019-04-28T03:32:45.355Z,8.06
2019-04-28T03:33:41.966Z,8.00
2019-04-28T03:34:36.500Z,8.09
2019-04-28T03:35:33.722Z,7.96
2019-04-28T03:36:33.803Z,7.95
2019-04-28T03:37:33.700Z,7.94
2019-04-28T03:38:33.717Z,7.99
2019-04-28T03:39:33.689Z,7.99
2019-04-28T03:40:33.952Z,7.99
2019-04-28T03:41:33.667Z,7.94
2019-04-28T03:42:33.656Z,7.99
2019-04-28T03:43:33.654Z,7.94
2019-04-28T03:44:34.013Z,7.99
2019-04-28T03:45:33.614Z,7.95
2019-04-28T03:46:33.611Z,7.96
2019-04-28T03:47:33.604Z,7.92
2019-04-28T03:48:33.944Z,7.92
2019-04-28T03:49:33.575Z,7.95
2019-04-28T03:50:33.598Z,7.94
2019-04-28T03:51:33.562Z,7.92
2019-04-28T03:52:33.547Z,7.92
2019-04-28T03:53:33.538Z,8.02
2019-04-28T03:54:33.526Z,7.85
2019-04-28T03:55:34.992Z,7.88
2019-04-28T03:56:33.523Z,7.89
2019-04-28T03:57:33.489Z,7.81
2019-04-28T03:58:33.488Z,7.86
2019-04-28T03:59:33.469Z,7.84
2019-04-28T04:00:33.485Z,7.85
2019-04-28T04:01:33.455Z,7.85
2019-04-28T04:02:33.459Z,7.77
2019-04-28T04:03:33.427Z,7.85
2019-04-28T04:04:33.416Z,7.86
2019-04-28T04:05:33.414Z,7.70
2019-04-28T04:06:33.429Z,7.76
2019-04-28T04:07:33.405Z,7.73
2019-04-28T04:08:33.376Z,7.81
2019-04-28T04:09:33.362Z,7.81
2019-04-28T04:10:33.355Z,7.74
2019-04-28T04:11:33.338Z,7.73
2019-04-28T04:12:33.354Z,7.70
2019-04-28T04:13:33.329Z,7.77
2019-04-28T04:14:33.316Z,7.71
2019-04-28T04:15:33.305Z,7.73
2019-04-28T04:16:33.301Z,7.67
2019-04-28T04:17:33.682Z,7.71
2019-04-28T04:18:33.265Z,7.79
2019-04-28T04:19:33.262Z,7.73
2019-04-28T04:20:33.264Z,7.73
2019-04-28T04:21:33.231Z,7.73
2019-04-28T04:22:33.228Z,7.73
2019-04-28T04:23:33.248Z,7.79
2019-04-28T04:24:33.226Z,7.76
2019-04-28T04:25:33.198Z,7.77
2019-04-28T04:26:33.787Z,7.73
2019-04-28T04:27:33.176Z,7.74
2019-04-28T04:28:33.169Z,7.71
2019-04-28T04:29:33.178Z,7.81
2019-04-28T04:30:33.147Z,7.66
2019-04-28T04:31:33.145Z,7.81
2019-04-28T04:32:33.937Z,7.76
2019-04-28T04:33:33.116Z,7.67
2019-04-28T04:34:33.112Z,7.73
2019-04-28T04:35:33.128Z,7.76
2019-04-28T04:36:33.090Z,7.74
2019-04-28T04:37:33.062Z,7.79
2019-04-28T04:38:33.065Z,7.74
2019-04-28T04:39:33.044Z,7.73
2019-04-28T04:40:33.033Z,7.77
2019-04-28T04:41:33.055Z,7.73
2019-04-28T04:42:33.026Z,7.73
2019-04-28T04:43:33.010Z,7.82
2019-04-28T04:44:32.996Z,7.77
2019-04-28T04:45:32.983Z,7.82
2019-04-28T04:46:32.978Z,7.82
2019-04-28T04:47:33.030Z,7.77
2019-04-28T04:48:32.956Z,7.79
2019-04-28T04:49:32.939Z,7.82
2019-04-28T04:50:32.944Z,7.81
2019-04-28T04:51:32.924Z,7.74
2019-04-28T04:52:32.916Z,7.74
2019-04-28T04:53:32.917Z,7.73
2019-04-28T04:54:36.583Z,7.71
2019-04-28T04:55:32.878Z,7.69
2019-04-28T04:56:32.865Z,7.79
2019-04-28T04:57:32.856Z,7.71
2019-04-28T04:58:32.879Z,7.76
2019-04-28T04:59:32.841Z,7.77
2019-04-28T05:00:32.842Z,7.81
2019-04-28T05:01:32.832Z,7.73
2019-04-28T05:02:33.291Z,7.71
2019-04-28T05:03:32.794Z,7.67
2019-04-28T05:04:32.812Z,7.74
2019-04-28T05:05:32.775Z,7.76
2019-04-28T05:06:32.773Z,7.71
2019-04-28T05:07:32.760Z,7.63
2019-04-28T05:08:32.742Z,7.67
2019-04-28T05:09:32.734Z,7.60
2019-04-28T05:10:32.744Z,7.52
2019-04-28T05:11:32.720Z,7.58
2019-04-28T05:12:32.706Z,7.51
2019-04-28T05:13:32.724Z,7.55
2019-04-28T05:14:32.685Z,7.60
2019-04-28T05:15:32.667Z,7.58
2019-04-28T05:16:32.712Z,7.51
2019-04-28T05:17:32.652Z,7.50
2019-04-28T05:18:32.644Z,7.54
2019-04-28T05:19:32.636Z,7.54
2019-04-28T05:20:32.616Z,7.54
2019-04-28T05:21:33.443Z,7.57
2019-04-28T05:22:32.681Z,7.50
2019-04-28T05:23:32.586Z,7.50
2019-04-28T05:24:32.577Z,7.52
2019-04-28T05:25:32.706Z,7.51
2019-04-28T05:26:32.648Z,7.51
2019-04-28T05:27:32.671Z,7.51
2019-04-28T05:28:36.689Z,7.51
2019-04-28T05:29:33.533Z,7.51
2019-04-28T05:30:34.808Z,7.52
2019-04-28T05:31:33.502Z,7.39
2019-04-28T05:32:42.055Z,7.51
2019-04-28T05:33:34.037Z,7.51
2019-04-28T05:34:32.472Z,7.39
2019-04-28T05:35:32.462Z,7.42
2019-04-28T05:36:41.193Z,7.48
2019-04-28T05:37:33.436Z,7.41
2019-04-28T05:38:32.428Z,7.42
2019-04-28T05:39:32.439Z,7.39
2019-04-28T05:40:32.405Z,7.32
2019-04-28T05:41:32.389Z,7.36
2019-04-28T05:42:32.397Z,7.44
2019-04-28T05:43:32.391Z,7.37
2019-04-28T05:44:32.400Z,7.37
2019-04-28T05:45:32.502Z,7.44
2019-04-28T05:46:32.343Z,7.42
2019-04-28T05:47:32.328Z,7.45
2019-04-28T05:48:32.318Z,7.51
2019-04-28T05:49:32.316Z,7.45
2019-04-28T05:50:32.299Z,7.37
2019-04-28T05:51:32.319Z,7.39
2019-04-28T05:52:32.283Z,7.42
2019-04-28T05:53:32.289Z,7.42
2019-04-28T05:54:32.256Z,7.47
2019-04-28T05:55:32.273Z,7.45
2019-04-28T05:56:32.237Z,7.36
2019-04-28T05:57:32.256Z,7.42
2019-04-28T05:58:32.224Z,7.47
2019-04-28T05:59:32.202Z,7.41
2019-04-28T06:00:32.206Z,7.42
2019-04-28T06:01:32.182Z,7.41
2019-04-28T06:02:32.173Z,7.47
2019-04-28T06:03:32.190Z,7.39
2019-04-28T06:04:32.149Z,7.48
2019-04-28T06:05:32.158Z,7.52
2019-04-28T06:06:32.136Z,7.50
2019-04-28T06:07:32.123Z,7.41
2019-04-28T06:08:32.136Z,7.45
2019-04-28T06:09:32.096Z,7.45
2019-04-28T06:10:32.088Z,7.44
2019-04-28T06:11:32.110Z,7.45
2019-04-28T06:12:32.110Z,7.37
2019-04-28T06:13:32.055Z,7.44
2019-04-28T06:14:32.080Z,7.34
2019-04-28T06:15:32.050Z,7.42
2019-04-28T06:16:32.029Z,7.41
2019-04-28T06:17:32.024Z,7.45
2019-04-28T06:18:32.007Z,7.45
2019-04-28T06:19:31.990Z,7.47
2019-04-28T06:20:32.014Z,7.39
2019-04-28T06:21:31.993Z,7.37
2019-04-28T06:22:31.962Z,7.51
2019-04-28T06:23:31.957Z,7.41
2019-04-28T06:24:31.940Z,7.50
2019-04-28T06:25:31.932Z,7.47
2019-04-28T06:26:31.949Z,7.42
2019-04-28T06:27:32.797Z,7.50
2019-04-28T06:28:31.898Z,7.45
2019-04-28T06:29:31.895Z,7.47
2019-04-28T06:30:31.881Z,7.45
2019-04-28T06:31:31.863Z,7.37
2019-04-28T06:32:31.896Z,7.48
2019-04-28T06:33:31.845Z,7.42
2019-04-28T06:34:31.829Z,7.52
2019-04-28T06:35:31.871Z,7.41
2019-04-28T06:36:31.816Z,7.48
2019-04-28T06:37:31.805Z,7.44
2019-04-28T06:38:31.825Z,7.47
2019-04-28T06:39:31.780Z,7.37
2019-04-28T06:40:31.779Z,7.42
2019-04-28T06:41:31.758Z,7.42
2019-04-28T06:42:31.751Z,7.41
2019-04-28T06:43:31.738Z,7.34
2019-04-28T06:44:31.755Z,7.39
2019-04-28T06:45:31.765Z,7.36
2019-04-28T06:46:31.718Z,7.41
2019-04-28T06:47:31.709Z,7.34
2019-04-28T06:48:31.690Z,7.32
2019-04-28T06:49:31.680Z,7.37
2019-04-28T06:50:31.701Z,7.37
2019-04-28T06:51:31.658Z,7.34
2019-04-28T06:52:31.645Z,7.37
2019-04-28T06:53:31.632Z,7.48
2019-04-28T06:54:31.618Z,7.42
2019-04-28T06:55:31.615Z,7.45
2019-04-28T06:56:31.632Z,7.39
2019-04-28T06:57:31.599Z,7.41
2019-04-28T06:58:31.583Z,7.45
2019-04-28T06:59:31.566Z,7.47
2019-04-28T07:00:31.560Z,7.41
2019-04-28T07:01:31.554Z,7.41
2019-04-28T07:02:31.564Z,7.44
2019-04-28T07:03:31.528Z,7.45
2019-04-28T07:04:31.524Z,7.42
2019-04-28T07:05:31.512Z,7.39
2019-04-28T07:06:31.494Z,7.48
2019-04-28T07:07:31.485Z,7.41
2019-04-28T07:08:31.486Z,7.51
2019-04-28T07:09:31.472Z,7.50
2019-04-28T07:10:31.457Z,7.52
2019-04-28T07:11:31.445Z,7.52
2019-04-28T07:12:31.463Z,7.54
2019-04-28T07:13:31.445Z,7.57
2019-04-28T07:14:31.409Z,7.52
2019-04-28T07:15:31.405Z,7.52
2019-04-28T07:16:31.393Z,7.41
2019-04-28T07:17:31.394Z,7.39
2019-04-28T07:18:31.389Z,7.55
2019-04-28T07:19:33.480Z,7.48
2019-04-28T07:20:31.343Z,7.54
2019-04-28T07:21:31.343Z,7.45
2019-04-28T07:22:31.335Z,7.39
2019-04-28T07:23:31.314Z,7.41
2019-04-28T07:24:31.309Z,7.42
2019-04-28T07:25:31.339Z,7.48
2019-04-28T07:26:31.286Z,7.44
2019-04-28T07:27:31.275Z,7.41
2019-04-28T07:28:31.268Z,7.51
2019-04-28T07:29:31.254Z,7.39
2019-04-28T07:30:31.250Z,7.44
2019-04-28T07:31:31.290Z,7.45
2019-04-28T07:32:31.224Z,7.36
2019-04-28T07:33:36.146Z,7.33
2019-04-28T07:34:32.198Z,7.45
2019-04-28T07:35:31.244Z,7.37
2019-04-28T07:36:31.180Z,7.39
2019-04-28T07:37:31.196Z,7.41
2019-04-28T07:38:31.152Z,7.42
2019-04-28T07:39:31.156Z,7.42
2019-04-28T07:40:31.132Z,7.45
2019-04-28T07:41:31.125Z,7.51
2019-04-28T07:42:31.197Z,7.39
2019-04-28T07:43:31.765Z,7.48
2019-04-28T07:44:31.103Z,7.45
2019-04-28T07:45:31.080Z,7.44
2019-04-28T07:46:31.069Z,7.52
2019-04-28T07:47:31.062Z,7.41
2019-04-28T07:48:31.046Z,7.41
2019-04-28T07:49:31.106Z,7.30
2019-04-28T07:50:31.027Z,7.42
2019-04-28T07:51:31.054Z,7.48
2019-04-28T07:52:31.009Z,7.50
2019-04-28T07:53:30.996Z,7.51
2019-04-28T07:54:30.987Z,7.37
2019-04-28T07:55:31.071Z,7.41
2019-04-28T07:56:31.002Z,7.54
2019-04-28T07:57:30.970Z,7.48
2019-04-28T07:58:30.943Z,7.41
2019-04-28T07:59:30.943Z,7.41
2019-04-28T08:00:30.927Z,7.51
2019-04-28T08:01:31.044Z,7.51
2019-04-28T08:02:30.908Z,7.50
2019-04-28T08:03:30.888Z,7.57
2019-04-28T08:04:30.883Z,7.51
2019-04-28T08:05:30.865Z,7.57
2019-04-28T08:06:30.858Z,7.55
2019-04-28T08:07:30.866Z,7.60
2019-04-28T08:08:30.844Z,7.57
2019-04-28T08:09:30.830Z,7.57
2019-04-28T08:10:30.819Z,7.57
2019-04-28T08:11:30.810Z,7.54
2019-04-28T08:12:30.824Z,7.60
2019-04-28T08:13:30.791Z,7.52
2019-04-28T08:14:30.785Z,7.60
2019-04-28T08:15:30.769Z,7.62
2019-04-28T08:16:30.751Z,7.55
2019-04-28T08:17:30.744Z,7.52
2019-04-28T08:18:31.731Z,7.47
2019-04-28T08:19:30.729Z,7.44
2019-04-28T08:20:30.715Z,7.45
2019-04-28T08:21:30.706Z,7.55
2019-04-28T08:22:30.693Z,7.60
2019-04-28T08:23:30.687Z,7.62
2019-04-28T08:24:30.697Z,7.55
2019-04-28T08:25:30.658Z,7.54
2019-04-28T08:26:30.651Z,7.55
2019-04-28T08:27:30.635Z,7.54
2019-04-28T08:28:30.631Z,7.55
2019-04-28T08:29:30.618Z,7.51
2019-04-28T08:30:30.630Z,7.50
2019-04-28T08:31:30.595Z,7.58
2019-04-28T08:32:30.626Z,7.58
2019-04-28T08:33:33.155Z,7.54
2019-04-28T08:34:30.564Z,7.55
2019-04-28T08:35:30.557Z,7.62
2019-04-28T08:36:30.591Z,7.55
2019-04-28T08:37:30.528Z,7.55
2019-04-28T08:38:30.518Z,7.52
2019-04-28T08:39:30.507Z,7.52
2019-04-28T08:40:30.544Z,7.52
2019-04-28T08:41:30.486Z,7.58
2019-04-28T08:42:30.476Z,7.54
2019-04-28T08:43:30.471Z,7.55
2019-04-28T08:44:30.456Z,7.52
2019-04-28T08:45:30.468Z,7.47
2019-04-28T08:46:30.472Z,7.50
2019-04-28T08:47:30.427Z,7.50
2019-04-28T08:48:30.422Z,7.54
2019-04-28T08:49:30.407Z,7.48
2019-04-28T08:50:30.395Z,7.51
2019-04-28T08:51:30.466Z,7.45
2019-04-28T08:52:30.420Z,7.45
2019-04-28T08:53:30.365Z,7.41
2019-04-28T08:54:30.351Z,7.52
2019-04-28T08:55:30.345Z,7.55
2019-04-28T08:56:30.332Z,7.52
2019-04-28T08:57:30.325Z,7.51
2019-04-28T08:58:30.364Z,7.55
2019-04-28T08:59:30.295Z,7.60
2019-04-28T09:00:30.317Z,7.52
2019-04-28T09:01:30.283Z,7.55
2019-04-28T09:02:30.268Z,7.54
2019-04-28T09:03:30.289Z,7.66
2019-04-28T09:04:30.249Z,7.66
2019-04-28T09:05:30.239Z,7.63
2019-04-28T09:06:30.246Z,7.67
2019-04-28T09:07:30.214Z,7.62
2019-04-28T09:08:30.211Z,7.63
2019-04-28T09:09:30.250Z,7.62
2019-04-28T09:10:30.179Z,7.58
2019-04-28T09:11:30.178Z,7.62
2019-04-28T09:12:30.185Z,7.74
2019-04-28T09:13:30.163Z,7.71
2019-04-28T09:14:30.147Z,7.77
2019-04-28T09:15:30.215Z,7.67
2019-04-28T09:16:30.116Z,7.67
2019-04-28T09:17:30.108Z,7.69
2019-04-28T09:18:30.144Z,7.66
2019-04-28T09:19:30.083Z,7.74
2019-04-28T09:20:30.090Z,7.66
2019-04-28T09:21:30.108Z,7.73
2019-04-28T09:22:30.057Z,7.73
2019-04-28T09:23:30.050Z,7.79
2019-04-28T09:24:30.072Z,7.77
2019-04-28T09:25:30.047Z,7.96
2019-04-28T09:26:30.085Z,7.95
2019-04-28T09:27:30.024Z,8.13
2019-04-28T09:28:29.994Z,8.17
2019-04-28T09:29:30.001Z,8.14
2019-04-28T09:30:29.962Z,8.21
2019-04-28T09:31:29.965Z,8.07
2019-04-28T09:32:29.952Z,8.07
2019-04-28T09:33:30.002Z,8.10
2019-04-28T09:34:29.933Z,8.14
2019-04-28T09:35:29.911Z,8.20
2019-04-28T09:36:29.900Z,8.17
2019-04-28T09:37:29.896Z,8.06
2019-04-28T09:38:29.886Z,8.12
2019-04-28T09:39:29.894Z,8.00
2019-04-28T09:40:29.857Z,8.02
2019-04-28T09:41:29.854Z,7.94
2019-04-28T09:42:29.838Z,7.94
2019-04-28T09:43:29.820Z,7.89
2019-04-28T09:44:29.817Z,7.94
2019-04-28T09:45:29.833Z,7.96
2019-04-28T09:46:29.792Z,7.96
2019-04-28T09:47:29.812Z,8.06
2019-04-28T09:48:29.773Z,7.99
2019-04-28T09:49:29.759Z,8.12
2019-04-28T09:50:29.786Z,8.06
2019-04-28T09:51:29.762Z,7.95
2019-04-28T09:52:29.741Z,7.91
2019-04-28T09:53:29.727Z,8.00
2019-04-28T09:54:29.713Z,8.00
2019-04-28T09:55:29.693Z,7.88
2019-04-28T09:56:29.712Z,7.95
2019-04-28T09:57:29.671Z,7.95
2019-04-28T09:58:29.683Z,7.96
2019-04-28T09:59:29.657Z,8.02
2019-04-28T10:00:29.655Z,7.92
2019-04-28T10:01:29.635Z,7.92
2019-04-28T10:02:29.771Z,7.99
2019-04-28T10:03:29.617Z,7.96
2019-04-28T10:04:41.063Z,7.94
2019-04-28T10:05:30.584Z,7.99
2019-04-28T10:06:29.584Z,8.00
2019-04-28T10:07:29.573Z,8.04
2019-04-28T10:08:29.590Z,8.03
2019-04-28T10:09:29.545Z,8.00
2019-04-28T10:10:29.544Z,8.10
2019-04-28T10:11:30.699Z,8.03
2019-04-28T10:12:29.511Z,8.10
2019-04-28T10:13:29.510Z,8.17
2019-04-28T10:14:29.531Z,8.03
2019-04-28T10:15:29.489Z,8.07
2019-04-28T10:16:29.472Z,8.07
2019-04-28T10:17:29.467Z,8.09
2019-04-28T10:18:29.451Z,8.03
2019-04-28T10:19:29.444Z,8.14
2019-04-28T10:20:29.454Z,8.18
2019-04-28T10:21:29.437Z,8.21
2019-04-28T10:22:29.412Z,8.20
2019-04-28T10:23:29.405Z,8.24
2019-04-28T10:24:29.385Z,8.28
2019-04-28T10:25:29.384Z,8.31
2019-04-28T10:26:29.403Z,8.40
2019-04-28T10:27:29.361Z,8.39
2019-04-28T10:28:29.350Z,8.42
2019-04-28T10:29:29.341Z,8.61
2019-04-28T10:30:29.327Z,8.57
2019-04-28T10:31:29.313Z,8.75
2019-04-28T10:32:29.345Z,8.79
2019-04-28T10:33:29.286Z,8.67
2019-04-28T10:34:29.318Z,8.75
2019-04-28T10:35:29.277Z,8.85
2019-04-28T10:36:29.266Z,8.88
2019-04-28T10:37:29.250Z,8.76
2019-04-28T10:38:29.247Z,8.70
2019-04-28T10:39:29.224Z,8.68
2019-04-28T10:40:29.224Z,8.71
2019-04-28T10:41:29.203Z,8.86
2019-04-28T10:42:29.205Z,8.86
2019-04-28T10:43:29.210Z,8.75
2019-04-28T10:44:29.171Z,8.86
2019-04-28T10:45:29.166Z,8.89
2019-04-28T10:46:29.143Z,8.80
2019-04-28T10:47:29.139Z,8.88
2019-04-28T10:48:29.120Z,8.94
2019-04-28T10:49:29.125Z,8.79
2019-04-28T10:50:29.104Z,8.78
2019-04-28T10:51:29.101Z,8.80
2019-04-28T10:52:29.090Z,8.68
2019-04-28T10:53:29.162Z,8.63
2019-04-28T10:54:29.086Z,8.61
2019-04-28T10:55:29.044Z,8.61
2019-04-28T10:56:29.039Z,8.61
2019-04-28T10:57:29.033Z,8.58
2019-04-28T10:58:29.009Z,8.61
2019-04-28T10:59:29.016Z,8.57
2019-04-28T11:00:29.026Z,8.70
2019-04-28T11:01:28.981Z,8.65
2019-04-28T11:02:28.983Z,8.68
2019-04-28T11:03:28.954Z,8.64
2019-04-28T11:04:28.960Z,8.67
2019-04-28T11:05:29.030Z,8.70
2019-04-28T11:06:29.016Z,8.64
2019-04-28T11:07:28.924Z,8.76
2019-04-28T11:08:28.904Z,8.78
2019-04-28T11:09:30.668Z,8.73
2019-04-28T11:10:28.897Z,8.76
2019-04-28T11:11:28.880Z,8.80
2019-04-28T11:12:28.886Z,8.75
2019-04-28T11:13:28.852Z,8.79
2019-04-28T11:14:28.843Z,8.91
2019-04-28T11:15:28.864Z,8.85
2019-04-28T11:16:28.815Z,8.91
2019-04-28T11:17:28.799Z,8.91
2019-04-28T11:18:28.811Z,8.91
2019-04-28T11:19:28.802Z,8.86
2019-04-28T11:20:28.764Z,8.85
2019-04-28T11:21:28.758Z,9.00
2019-04-28T11:22:28.754Z,9.08
2019-04-28T11:23:28.767Z,9.17
2019-04-28T11:24:28.734Z,9.22
2019-04-28T11:25:28.721Z,9.31
2019-04-28T11:26:28.775Z,9.23
2019-04-28T11:27:28.690Z,9.22
2019-04-28T11:28:28.676Z,9.10
2019-04-28T11:29:28.697Z,9.15
2019-04-28T11:30:28.667Z,9.10
2019-04-28T11:31:28.660Z,9.04
2019-04-28T11:32:28.698Z,9.17
2019-04-28T11:33:28.637Z,9.13
2019-04-28T11:34:28.616Z,9.12
2019-04-28T11:35:28.647Z,9.17
2019-04-28T11:36:28.598Z,9.17
2019-04-28T11:37:28.697Z,8.98
2019-04-28T11:38:28.567Z,9.13
2019-04-28T11:39:28.561Z,9.01
2019-04-28T11:40:28.553Z,9.00
2019-04-28T11:41:29.220Z,8.97
2019-04-28T11:42:28.540Z,9.08
2019-04-28T11:43:28.519Z,9.04
2019-04-28T11:44:28.500Z,8.98
2019-04-28T11:45:28.527Z,9.08
2019-04-28T11:46:28.491Z,8.97
2019-04-28T11:47:28.473Z,8.93
2019-04-28T11:48:28.477Z,9.03
2019-04-28T11:49:28.522Z,9.12
2019-04-28T11:50:28.445Z,9.10
2019-04-28T11:51:28.461Z,9.00
2019-04-28T11:52:28.419Z,8.97
2019-04-28T11:53:28.406Z,9.08
2019-04-28T11:54:28.394Z,9.03
2019-04-28T11:55:28.395Z,9.04
2019-04-28T11:56:40.505Z,9.15
2019-04-28T11:57:29.387Z,9.08
2019-04-28T11:58:28.354Z,9.10
2019-04-28T11:59:28.342Z,9.10
2019-04-28T12:00:28.369Z,9.12
2019-04-28T12:01:28.317Z,9.17
2019-04-28T12:02:28.306Z,9.15
2019-04-28T12:03:28.344Z,9.17
2019-04-28T12:04:28.280Z,9.10
2019-04-28T12:05:34.392Z,9.16
2019-04-28T12:06:29.262Z,9.10
2019-04-28T12:07:28.257Z,9.23
2019-04-28T12:08:28.277Z,9.20
2019-04-28T12:09:28.232Z,9.27
2019-04-28T12:10:28.232Z,9.40
2019-04-28T12:11:28.217Z,9.45
2019-04-28T12:12:28.196Z,9.42
2019-04-28T12:13:28.187Z,9.41
2019-04-28T12:14:28.198Z,9.38
2019-04-28T12:15:28.164Z,9.38
2019-04-28T12:16:28.156Z,9.53
2019-04-28T12:17:28.174Z,9.53
2019-04-28T12:18:28.131Z,9.53
2019-04-28T12:19:28.135Z,9.56
2019-04-28T12:20:28.127Z,9.55
2019-04-28T12:21:28.114Z,9.63
2019-04-28T12:22:28.115Z,9.63
2019-04-28T12:23:28.081Z,9.65
2019-04-28T12:24:28.068Z,9.63
2019-04-28T12:25:28.092Z,9.65
2019-04-28T12:26:28.068Z,9.75
2019-04-28T12:27:28.042Z,9.70
2019-04-28T12:28:28.028Z,9.86
2019-04-28T12:29:28.017Z,9.86
2019-04-28T12:30:28.009Z,9.83
2019-04-28T12:31:28.015Z,9.88
2019-04-28T12:32:27.994Z,9.93
2019-04-28T12:33:27.971Z,9.95
2019-04-28T12:34:27.967Z,9.89
2019-04-28T12:35:27.941Z,10.01
2019-04-28T12:36:27.938Z,10.06
2019-04-28T12:37:27.962Z,10.01
2019-04-28T12:38:27.914Z,9.99
2019-04-28T12:39:27.907Z,10.04
2019-04-28T12:40:27.900Z,10.02
2019-04-28T12:41:27.876Z,10.06
2019-04-28T12:42:27.873Z,10.07
2019-04-28T12:43:27.889Z,10.18
2019-04-28T12:44:27.862Z,10.07
2019-04-28T12:45:34.962Z,10.14
2019-04-28T12:46:28.820Z,10.18
2019-04-28T12:47:27.815Z,10.11
2019-04-28T12:48:27.887Z,10.14
2019-04-28T12:49:27.808Z,10.20
2019-04-28T12:50:27.791Z,10.17
2019-04-28T12:51:27.787Z,10.20
2019-04-28T12:52:27.770Z,10.25
2019-04-28T12:53:27.782Z,10.26
2019-04-28T12:54:27.782Z,10.36
2019-04-28T12:55:27.731Z,10.47
2019-04-28T12:56:27.719Z,10.65
2019-04-28T12:57:27.719Z,10.72
2019-04-28T12:58:27.697Z,10.69
2019-04-28T12:59:27.711Z,10.68
2019-04-28T13:00:27.676Z,10.63
2019-04-28T13:01:27.678Z,10.69
2019-04-28T13:02:27.657Z,10.62
2019-04-28T13:03:27.663Z,10.63
2019-04-28T13:04:27.638Z,10.63
2019-04-28T13:05:27.653Z,10.54
2019-04-28T13:06:27.617Z,10.46
2019-04-28T13:07:27.607Z,10.46
2019-04-28T13:08:27.601Z,10.51
2019-04-28T13:09:27.580Z,10.47
2019-04-28T13:10:27.593Z,10.49
2019-04-28T13:11:27.556Z,10.47
2019-04-28T13:12:27.589Z,10.44
2019-04-28T13:13:27.533Z,10.42
2019-04-28T13:14:27.524Z,10.52
2019-04-28T13:15:27.519Z,10.57
2019-04-28T13:16:27.539Z,10.66
2019-04-28T13:17:27.498Z,10.75